Time;durP1;ratioP1;P1;durP2;ratioP2;P2;SDS_P1;SDS_P2;PMS_P1;PMS_P2;Temp;Humidity;BMP_temperature;BMP_pressure;BME280_temperature;BME280_humidity;BME280_pressure;Samples;Min_cycle;Max_cycle;Signal;HPM_P1;HPM_P2
2021/07/16 00:00:16;;;;;;;;;;;;;;;22.16;51.80;100451.88;5142318;27;930;-62
2021/07/16 00:02:43;;;;;;;;;;;;;;;22.29;52.52;100452.09;5161350;27;822;-62
2021/07/16 00:05:09;;;;;;;;;;;;;;;22.33;52.96;100458.59;5142239;27;1140;-62
2021/07/16 00:07:34;;;;;;;;;;;;;;;22.37;53.32;100454.09;5161224;27;1976;-62
2021/07/16 00:10:00;;;;;;;;;;;;;;;22.41;53.63;100454.28;5161060;27;841;-62
2021/07/16 00:12:26;;;;;;;;;;;;;;;22.37;53.77;100454.09;5161034;27;977;-65
2021/07/16 00:14:51;;;;;;;;;;;;;;;22.14;55.10;100445.84;5161131;27;834;-62
2021/07/16 00:17:17;;;;;;;;;;;;;;;22.05;54.73;100437.50;5161211;27;750;-62
2021/07/16 00:19:42;;;;;;;;;;;;;;;21.82;54.77;100435.91;5160964;27;502;-62
2021/07/16 00:22:07;;;;;;;;;;;;;;;21.90;56.28;100445.41;5161023;27;801;-62
2021/07/16 00:24:33;;;;;;;;;;;;;;;22.10;55.58;100436.53;5160947;27;766;-65
2021/07/16 00:26:58;;;;;;;;;;;;;;;22.25;55.25;100440.84;5160372;27;965;-62
2021/07/16 00:29:28;;;;;;;;;;;;;;;22.38;55.01;100439.13;5160720;27;1910;-63
2021/07/16 00:31:53;;;;;;;;;;;;;;;22.40;54.82;100436.84;5161215;27;792;-64
2021/07/16 00:34:19;;;;;;;;;;;;;;;22.21;55.45;100437.88;5160368;27;742;-62
2021/07/16 00:36:44;;;;;;;;;;;;;;;22.11;54.99;100435.41;5142317;27;1408;-64
2021/07/16 00:39:09;;;;;;;;;;;;;;;21.83;54.28;100435.59;5160756;27;727;-63
2021/07/16 00:41:35;;;;;;;;;;;;;;;21.97;56.63;100435.50;5159881;27;1013;-63
2021/07/16 00:44:00;;;;;;;;;;;;;;;22.14;55.80;100439.50;5160548;27;787;-64
2021/07/16 00:46:26;;;;;;;;;;;;;;;22.30;55.38;100429.63;5160648;27;849;-62
2021/07/16 00:48:51;;;;;;;;;;;;;;;22.40;54.99;100439.63;5160088;27;1910;-63
2021/07/16 00:51:17;;;;;;;;;;;;;;;22.35;55.10;100439.75;5160742;27;1114;-64
2021/07/16 00:53:42;;;;;;;;;;;;;;;22.21;55.67;100439.84;5141921;27;786;-64
2021/07/16 00:56:08;;;;;;;;;;;;;;;22.10;55.40;100432.97;5156231;27;1019;-65
2021/07/16 00:58:33;;;;;;;;;;;;;;;21.86;54.57;100426.66;5139508;27;812;-64
2021/07/16 01:00:58;;;;;;;;;;;;;;;21.94;55.20;100425.06;5120941;27;814;-64
2021/07/16 01:03:24;;;;;;;;;;;;;;;22.07;55.50;100428.06;5139115;27;1034;-65
2021/07/16 01:05:49;;;;;;;;;;;;;;;22.30;55.51;100426.00;5121709;27;835;-63
2021/07/16 01:08:15;;;;;;;;;;;;;;;22.40;55.63;100420.22;5139440;27;1972;-65
2021/07/16 01:10:40;;;;;;;;;;;;;;;22.33;56.15;100426.22;5139399;27;782;-63
2021/07/16 01:13:13;;;;;;;;;;;;;;;22.26;56.71;100427.78;5159257;27;953;-63
2021/07/16 01:15:38;;;;;;;;;;;;;;;22.17;56.18;100428.56;5142570;27;805;-62
2021/07/16 01:18:04;;;;;;;;;;;;;;;21.95;54.97;100425.88;5159781;27;751;-62
2021/07/16 01:20:30;;;;;;;;;;;;;;;22.00;57.60;100422.97;5159932;27;798;-62
2021/07/16 01:22:55;;;;;;;;;;;;;;;22.12;55.86;100420.44;5159894;27;794;-62
2021/07/16 01:25:25;;;;;;;;;;;;;;;22.21;53.55;100418.50;5159251;27;850;-64
2021/07/16 01:27:51;;;;;;;;;;;;;;;22.19;51.28;100409.72;5159242;27;1978;-62
2021/07/16 01:30:18;;;;;;;;;;;;;;;22.16;49.37;100410.34;5160243;27;786;-62
2021/07/16 01:32:43;;;;;;;;;;;;;;;22.03;48.86;100411.25;5159512;27;770;-62
2021/07/16 01:35:09;;;;;;;;;;;;;;;22.08;49.68;100413.06;5159540;27;746;-62
2021/07/16 01:37:37;;;;;;;;;;;;;;;22.14;51.48;100407.06;5159447;27;818;-62
2021/07/16 01:40:03;;;;;;;;;;;;;;;22.31;52.54;100411.03;5159078;27;894;-62
2021/07/16 01:42:35;;;;;;;;;;;;;;;22.32;53.66;100412.69;5159017;27;961;-62
2021/07/16 01:45:04;;;;;;;;;;;;;;;22.45;54.29;100410.94;5158962;27;747;-62
2021/07/16 01:47:29;;;;;;;;;;;;;;;22.37;55.27;100409.78;5158699;27;1906;-63
2021/07/16 01:49:55;;;;;;;;;;;;;;;22.27;56.01;100398.97;5159341;27;786;-63
2021/07/16 01:52:20;;;;;;;;;;;;;;;22.21;55.61;100401.88;5140186;27;1102;-64
2021/07/16 01:54:45;;;;;;;;;;;;;;;21.90;54.46;100409.44;5159018;27;760;-65
2021/07/16 01:57:11;;;;;;;;;;;;;;;22.11;57.44;100410.50;5159026;27;1008;-62
2021/07/16 01:59:36;;;;;;;;;;;;;;;22.17;57.55;100411.97;5158974;27;739;-63
2021/07/16 02:02:02;;;;;;;;;;;;;;;22.33;57.10;100414.28;5158998;27;822;-64
2021/07/16 02:04:28;;;;;;;;;;;;;;;22.42;56.01;100411.59;5158751;27;1220;-63
2021/07/16 02:06:53;;;;;;;;;;;;;;;22.35;54.52;100407.31;5158970;27;784;-65
2021/07/16 02:09:18;;;;;;;;;;;;;;;22.02;53.88;100415.16;5158705;27;1984;-63
2021/07/16 02:11:44;;;;;;;;;;;;;;;21.77;52.40;100417.50;5140224;27;934;-65
2021/07/16 02:14:09;;;;;;;;;;;;;;;21.71;51.35;100407.69;5158826;27;798;-62
2021/07/16 02:16:35;;;;;;;;;;;;;;;21.76;51.14;100410.34;5158531;27;829;-65
2021/07/16 02:19:00;;;;;;;;;;;;;;;21.90;52.94;100401.13;5158642;27;486;-63
2021/07/16 02:21:25;;;;;;;;;;;;;;;22.10;53.66;100411.63;5139992;27;1280;-63
2021/07/16 02:23:51;;;;;;;;;;;;;;;22.26;54.22;100408.41;5158629;27;847;-62
2021/07/16 02:26:16;;;;;;;;;;;;;;;22.33;54.86;100411.53;5158080;27;973;-62
2021/07/16 02:28:42;;;;;;;;;;;;;;;22.41;55.10;100410.75;5158461;27;1974;-62
2021/07/16 02:31:08;;;;;;;;;;;;;;;22.41;55.55;100409.97;5158610;27;755;-62
2021/07/16 02:33:34;;;;;;;;;;;;;;;22.16;56.76;100407.59;5158722;27;797;-66
2021/07/16 02:36:02;;;;;;;;;;;;;;;22.15;56.62;100405.94;5139486;27;1224;-62
2021/07/16 02:38:27;;;;;;;;;;;;;;;21.76;54.74;100413.09;5158902;27;778;-63
2021/07/16 02:40:53;;;;;;;;;;;;;;;21.92;57.79;100415.44;5157851;27;957;-66
2021/07/16 02:43:18;;;;;;;;;;;;;;;22.04;58.30;100407.38;5158071;27;837;-66
2021/07/16 02:45:44;;;;;;;;;;;;;;;22.17;57.92;100411.97;5158368;27;722;-64
2021/07/16 02:48:09;;;;;;;;;;;;;;;22.34;56.68;100408.47;5158388;27;1913;-62
2021/07/16 02:50:38;;;;;;;;;;;;;;;22.35;55.50;100415.63;5158059;27;1161;-68
2021/07/16 02:53:10;;;;;;;;;;;;;;;22.03;54.45;100416.81;5158289;27;850;-66
2021/07/16 02:55:36;;;;;;;;;;;;;;;21.82;52.86;100420.13;5158133;27;794;-67
2021/07/16 02:58:02;;;;;;;;;;;;;;;21.56;52.59;100419.16;5119720;27;1382;-62
2021/07/16 03:00:29;;;;;;;;;;;;;;;21.73;50.91;100424.81;5140583;27;903;-62
2021/07/16 03:02:55;;;;;;;;;;;;;;;21.80;51.62;100433.47;5142167;27;763;-67
2021/07/16 03:05:21;;;;;;;;;;;;;;;21.92;53.30;100426.53;5141732;27;1164;-63
2021/07/16 03:07:47;;;;;;;;;;;;;;;22.15;53.88;100419.78;5141827;27;1987;-63
2021/07/16 03:10:14;;;;;;;;;;;;;;;22.30;54.37;100423.25;5123143;27;558;-63
2021/07/16 03:12:39;;;;;;;;;;;;;;;22.34;54.97;100421.50;5141083;27;977;-61
2021/07/16 03:15:08;;;;;;;;;;;;;;;22.41;55.41;100421.84;5141667;27;862;-65
2021/07/16 03:17:34;;;;;;;;;;;;;;;22.22;56.42;100420.13;5141261;27;1012;-65
2021/07/16 03:20:00;;;;;;;;;;;;;;;22.16;56.60;100415.88;5141510;27;870;-64
2021/07/16 03:22:26;;;;;;;;;;;;;;;21.90;54.83;100415.78;5123109;27;1108;-65
2021/07/16 03:24:51;;;;;;;;;;;;;;;21.98;57.69;100412.22;5141269;27;812;-61
2021/07/16 03:27:17;;;;;;;;;;;;;;;22.09;57.81;100412.78;5140755;27;1909;-66
2021/07/16 03:29:43;;;;;;;;;;;;;;;22.28;57.33;100412.50;5141624;27;743;-60
2021/07/16 03:32:09;;;;;;;;;;;;;;;22.42;56.73;100408.81;5141118;27;746;-61
2021/07/16 03:34:34;;;;;;;;;;;;;;;22.15;56.28;100410.69;5141108;27;786;-64
2021/07/16 03:37:00;;;;;;;;;;;;;;;22.06;55.26;100407.84;5141092;27;751;-61
2021/07/16 03:39:25;;;;;;;;;;;;;;;21.73;53.36;100407.38;5140877;27;842;-63
2021/07/16 03:41:51;;;;;;;;;;;;;;;21.84;52.78;100420.63;5140888;27;969;-62
2021/07/16 03:44:16;;;;;;;;;;;;;;;21.90;50.98;100418.53;5141638;27;737;-61
2021/07/16 03:46:42;;;;;;;;;;;;;;;21.98;49.92;100422.47;5140592;27;742;-62
2021/07/16 03:49:07;;;;;;;;;;;;;;;21.93;49.14;100417.09;5140923;27;1975;-61
2021/07/16 03:51:32;;;;;;;;;;;;;;;21.92;48.73;100426.53;5150282;27;1110;-61
2021/07/16 03:53:58;;;;;;;;;;;;;;;21.90;48.40;100434.34;5161385;27;834;-65
2021/07/16 03:56:23;;;;;;;;;;;;;;;21.82;48.22;100439.50;5160567;27;1004;-64
2021/07/16 03:58:49;;;;;;;;;;;;;;;21.90;47.87;100445.41;5161559;27;830;-59
2021/07/16 04:01:14;;;;;;;;;;;;;;;21.90;48.73;100451.75;5160930;27;790;-66
2021/07/16 04:03:40;;;;;;;;;;;;;;;21.92;50.17;100452.25;5161415;27;1037;-62
2021/07/16 04:06:05;;;;;;;;;;;;;;;22.10;51.23;100455.91;5161516;27;746;-66
2021/07/16 04:08:35;;;;;;;;;;;;;;;22.15;52.28;100461.31;5160926;27;1968;-64
2021/07/16 04:11:00;;;;;;;;;;;;;;;22.33;53.06;100469.69;5160257;27;933;-64
2021/07/16 04:13:26;;;;;;;;;;;;;;;22.39;53.55;100471.22;5161048;27;770;-64
2021/07/16 04:15:51;;;;;;;;;;;;;;;22.48;53.87;100471.25;5161112;27;794;-63
2021/07/16 04:18:16;;;;;;;;;;;;;;;22.47;54.38;100453.81;5161120;27;814;-67
2021/07/16 04:20:42;;;;;;;;;;;;;;;22.27;55.42;100455.16;5161062;27;837;-64
2021/07/16 04:23:07;;;;;;;;;;;;;;;22.26;55.54;100450.78;5161023;27;839;-61
2021/07/16 04:25:33;;;;;;;;;;;;;;;21.98;54.37;100464.00;5161128;27;805;-61
2021/07/16 04:28:00;;;;;;;;;;;;;;;22.05;56.81;100467.16;5160348;27;1909;-61
2021/07/16 04:30:26;;;;;;;;;;;;;;;22.22;56.54;100471.94;5141738;27;1172;-61
2021/07/16 04:32:55;;;;;;;;;;;;;;;22.35;56.13;100457.19;5160987;27;782;-61
2021/07/16 04:35:20;;;;;;;;;;;;;;;22.58;55.86;100465.44;5160632;27;782;-59
2021/07/16 04:37:46;;;;;;;;;;;;;;;22.43;56.37;100465.84;5160951;27;798;-60
2021/07/16 04:40:12;;;;;;;;;;;;;;;22.51;55.52;100468.66;5159324;27;1009;-61
2021/07/16 04:42:37;;;;;;;;;;;;;;;22.25;54.29;100467.72;5143435;27;936;-61
2021/07/16 04:45:03;;;;;;;;;;;;;;;22.38;54.83;100461.28;5139964;27;763;-60
2021/07/16 04:47:28;;;;;;;;;;;;;;;22.63;56.50;100475.53;5139524;27;1968;-62
2021/07/16 04:49:54;;;;;;;;;;;;;;;22.81;56.34;100484.72;5139757;27;780;-60
2021/07/16 04:52:20;;;;;;;;;;;;;;;22.94;55.69;100482.94;5155252;27;1200;-60
2021/07/16 04:54:45;;;;;;;;;;;;;;;23.08;55.09;100472.50;5160664;27;881;-58
2021/07/16 04:57:11;;;;;;;;;;;;;;;22.93;55.83;100475.75;5159511;27;945;-58
2021/07/16 04:59:37;;;;;;;;;;;;;;;23.28;53.69;100476.63;5160772;27;804;-57
2021/07/16 05:02:03;;;;;;;;;;;;;;;23.32;51.24;100476.78;5160342;27;687;-67
2021/07/16 05:04:29;;;;;;;;;;;;;;;23.46;53.04;100482.97;5159772;27;1171;-59
2021/07/16 05:06:54;;;;;;;;;;;;;;;23.55;53.44;100481.00;5160423;27;738;-65
2021/07/16 05:09:20;;;;;;;;;;;;;;;23.58;54.33;100480.34;5159501;27;1972;-64
2021/07/16 05:11:45;;;;;;;;;;;;;;;23.78;54.06;100480.00;5159571;27;929;-64
2021/07/16 05:14:11;;;;;;;;;;;;;;;23.74;54.49;100472.31;5160052;27;825;-60
2021/07/16 05:16:36;;;;;;;;;;;;;;;23.65;55.12;100474.28;5159981;27;895;-64
2021/07/16 05:19:02;;;;;;;;;;;;;;;23.45;52.80;100474.97;5159340;27;809;-61
2021/07/16 05:21:27;;;;;;;;;;;;;;;23.37;51.61;100473.84;5159774;27;739;-64
2021/07/16 05:23:52;;;;;;;;;;;;;;;23.65;53.85;100467.94;5159344;27;857;-59
2021/07/16 05:26:18;;;;;;;;;;;;;;;23.58;54.35;100462.88;5159278;27;965;-56
2021/07/16 05:28:45;;;;;;;;;;;;;;;23.76;53.08;100463.66;5157699;27;1918;-59
2021/07/16 05:31:11;;;;;;;;;;;;;;;23.27;53.38;100474.16;5159799;27;775;-59
2021/07/16 05:33:36;;;;;;;;;;;;;;;23.33;52.58;100470.09;5160054;27;794;-58
2021/07/16 05:36:02;;;;;;;;;;;;;;;23.49;52.21;100475.94;5160202;27;785;-54
2021/07/16 05:38:27;;;;;;;;;;;;;;;23.46;50.46;100466.31;5159271;27;806;-60
2021/07/16 05:40:53;;;;;;;;;;;;;;;23.37;51.69;100471.06;5157226;27;1036;-59
2021/07/16 05:43:18;;;;;;;;;;;;;;;23.39;51.35;100472.38;5138630;27;806;-59
2021/07/16 05:45:44;;;;;;;;;;;;;;;23.39;51.00;100466.81;5138848;27;837;-55
2021/07/16 05:48:10;;;;;;;;;;;;;;;23.35;50.83;100470.56;5138497;27;1974;-56
2021/07/16 05:50:46;;;;;;;;;;;;;;;23.43;50.54;100471.72;5139288;27;1126;-57
2021/07/16 05:53:11;;;;;;;;;;;;;;;23.34;50.71;100474.50;5159191;27;738;-49
2021/07/16 05:55:37;;;;;;;;;;;;;;;23.21;51.05;100463.25;5159344;27;814;-56
2021/07/16 05:58:02;;;;;;;;;;;;;;;23.23;51.15;100468.47;5158834;27;938;-51
2021/07/16 06:00:28;;;;;;;;;;;;;;;23.18;50.06;100466.69;5159345;27;825;-58
2021/07/16 06:02:54;;;;;;;;;;;;;;;22.79;52.13;100465.63;5159046;27;1034;-57
2021/07/16 06:05:19;;;;;;;;;;;;;;;22.79;52.24;100460.09;5158779;27;1061;-58
2021/07/16 06:07:46;;;;;;;;;;;;;;;23.00;51.90;100464.97;5159129;27;1909;-56
2021/07/16 06:10:11;;;;;;;;;;;;;;;23.04;51.81;100460.41;5158271;27;743;-51
2021/07/16 06:12:37;;;;;;;;;;;;;;;23.18;51.57;100465.84;5158082;27;957;-58
2021/07/16 06:15:03;;;;;;;;;;;;;;;23.18;51.67;100466.69;5157810;27;1090;-48
2021/07/16 06:17:30;;;;;;;;;;;;;;;23.19;50.90;100464.72;5158316;27;838;-50
2021/07/16 06:19:55;;;;;;;;;;;;;;;22.84;50.51;100451.59;5158139;27;771;-56
2021/07/16 06:22:21;;;;;;;;;;;;;;;22.91;53.31;100456.66;5157965;27;869;-58
2021/07/16 06:24:46;;;;;;;;;;;;;;;23.29;53.50;100455.25;5158629;27;735;-57
2021/07/16 06:27:11;;;;;;;;;;;;;;;23.58;54.21;100451.78;5158014;27;1016;-48
2021/07/16 06:29:37;;;;;;;;;;;;;;;23.74;55.03;100444.56;5157934;27;1970;-57
2021/07/16 06:32:03;;;;;;;;;;;;;;;23.16;56.67;100448.72;5158350;27;771;-60
2021/07/16 06:34:28;;;;;;;;;;;;;;;21.85;55.90;100444.41;5139393;27;826;-48
2021/07/16 06:36:57;;;;;;;;;;;;;;;20.95;57.75;100447.97;5158127;27;866;-46
2021/07/16 06:39:22;;;;;;;;;;;;;;;20.66;60.36;100437.25;5158169;27;774;-43
2021/07/16 06:41:48;;;;;;;;;;;;;;;20.68;60.64;100427.56;5138483;27;1101;-52
2021/07/16 06:44:13;;;;;;;;;;;;;;;20.55;59.78;100433.06;5158306;27;755;-51
2021/07/16 06:46:39;;;;;;;;;;;;;;;20.57;58.06;100428.88;5158135;27;874;-52
2021/07/16 06:49:04;;;;;;;;;;;;;;;20.42;57.26;100438.28;5157215;27;1987;-55
2021/07/16 06:51:33;;;;;;;;;;;;;;;20.37;56.56;100432.91;5157881;27;1158;-54
2021/07/16 06:54:01;;;;;;;;;;;;;;;20.54;55.51;100431.44;5158101;27;849;-52
2021/07/16 06:56:27;;;;;;;;;;;;;;;20.61;55.25;100434.63;5157516;27;953;-43
2021/07/16 06:58:53;;;;;;;;;;;;;;;20.57;56.75;100436.34;5157803;27;814;-55
2021/07/16 07:01:19;;;;;;;;;;;;;;;21.07;58.89;100430.00;5158095;27;784;-46
2021/07/16 07:03:44;;;;;;;;;;;;;;;21.07;61.70;100435.53;5157575;27;1113;-53
2021/07/16 07:06:10;;;;;;;;;;;;;;;21.07;63.65;100436.38;5157954;27;751;-43
2021/07/16 07:08:35;;;;;;;;;;;;;;;21.16;62.93;100434.47;5157794;27;1913;-44
2021/07/16 07:11:01;;;;;;;;;;;;;;;20.54;60.45;100429.50;5156922;27;1000;-51
2021/07/16 07:13:26;;;;;;;;;;;;;;;20.61;61.03;100429.91;5157971;27;810;-51
2021/07/16 07:15:51;;;;;;;;;;;;;;;20.71;62.87;100428.88;5157705;27;874;-44
2021/07/16 07:18:17;;;;;;;;;;;;;;;21.01;62.88;100432.06;5157986;27;775;-50
2021/07/16 07:20:42;;;;;;;;;;;;;;;21.08;61.90;100438.00;5157515;27;747;-44
2021/07/16 07:23:08;;;;;;;;;;;;;;;20.97;60.94;100431.91;5157570;27;810;-54
2021/07/16 07:25:33;;;;;;;;;;;;;;;20.94;60.54;100428.94;5157670;27;798;-43
2021/07/16 07:27:59;;;;;;;;;;;;;;;20.80;59.91;100440.84;5138565;27;1918;-43
2021/07/16 07:30:24;;;;;;;;;;;;;;;20.64;60.13;100426.50;5157645;27;743;-51
2021/07/16 07:32:50;;;;;;;;;;;;;;;20.57;60.38;100423.34;5157617;27;762;-43
2021/07/16 07:35:15;;;;;;;;;;;;;;;20.14;59.46;100426.44;5157489;27;899;-55
2021/07/16 07:37:41;;;;;;;;;;;;;;;20.18;60.51;100420.00;5157412;27;774;-43
2021/07/16 07:40:07;;;;;;;;;;;;;;;20.62;59.96;100431.53;5157285;27;806;-52
2021/07/16 07:42:33;;;;;;;;;;;;;;;20.90;59.11;100434.28;5157100;27;992;-43
2021/07/16 07:44:58;;;;;;;;;;;;;;;20.93;59.06;100435.56;5157715;27;818;-48
2021/07/16 07:47:26;;;;;;;;;;;;;;;20.99;58.94;100432.38;5161404;27;1968;-48
2021/07/16 07:49:52;;;;;;;;;;;;;;;20.93;59.23;100436.41;5161514;27;812;-46
2021/07/16 07:52:18;;;;;;;;;;;;;;;20.83;59.75;100434.69;5161143;27;1173;-53
2021/07/16 07:54:44;;;;;;;;;;;;;;;20.99;59.11;100437.13;5142204;27;831;-47
2021/07/16 07:57:09;;;;;;;;;;;;;;;20.39;58.94;100436.16;5160843;27;973;-47
2021/07/16 07:59:34;;;;;;;;;;;;;;;20.15;61.64;100428.91;5142358;27;867;-60
2021/07/16 08:02:00;;;;;;;;;;;;;;;20.50;60.92;100434.81;5161001;27;754;-43
2021/07/16 08:04:25;;;;;;;;;;;;;;;20.85;59.74;100429.66;5160826;27;1009;-54
2021/07/16 08:06:51;;;;;;;;;;;;;;;20.84;59.84;100430.78;5160725;27;747;-44
2021/07/16 08:09:16;;;;;;;;;;;;;;;20.98;59.61;100432.72;5160878;27;1984;-49
2021/07/16 08:11:42;;;;;;;;;;;;;;;20.97;59.23;100431.06;5151599;27;940;-45
2021/07/16 08:14:07;;;;;;;;;;;;;;;20.98;59.48;100435.47;5140284;27;740;-44
2021/07/16 08:16:33;;;;;;;;;;;;;;;20.92;59.89;100436.72;5140203;27;743;-45
2021/07/16 08:18:58;;;;;;;;;;;;;;;21.03;58.90;100435.38;5140158;27;770;-44
2021/07/16 08:21:24;;;;;;;;;;;;;;;20.85;56.85;100435.19;5139738;27;846;-49
2021/07/16 08:23:49;;;;;;;;;;;;;;;21.16;59.09;100434.47;5140057;27;938;-43
2021/07/16 08:26:15;;;;;;;;;;;;;;;21.67;58.30;100426.06;5139012;27;965;-52
2021/07/16 08:28:41;;;;;;;;;;;;;;;22.03;58.92;100422.34;5139667;27;1974;-41
2021/07/16 08:31:06;;;;;;;;;;;;;;;22.18;59.66;100419.13;5139697;27;815;-49
2021/07/16 08:33:31;;;;;;;;;;;;;;;22.34;60.40;100418.72;5139453;27;787;-44
2021/07/16 08:35:57;;;;;;;;;;;;;;;22.17;57.75;100417.50;5140045;27;943;-56
2021/07/16 08:38:22;;;;;;;;;;;;;;;21.82;55.48;100422.09;5139783;27;727;-44
2021/07/16 08:40:48;;;;;;;;;;;;;;;21.90;58.05;100418.53;5139769;27;957;-53
2021/07/16 08:43:15;;;;;;;;;;;;;;;22.07;59.27;100412.25;5160259;27;802;-48
2021/07/16 08:45:40;;;;;;;;;;;;;;;22.08;59.81;100413.06;5160171;27;818;-52
2021/07/16 08:48:06;;;;;;;;;;;;;;;22.27;59.26;100404.50;5141111;27;1918;-49
2021/07/16 08:50:31;;;;;;;;;;;;;;;22.34;58.16;100410.41;5160063;27;1090;-43
2021/07/16 08:53:01;;;;;;;;;;;;;;;22.47;57.29;100403.09;5140552;27;1631;-53
2021/07/16 08:55:27;;;;;;;;;;;;;;;21.87;57.98;100405.34;5142405;27;805;-56
2021/07/16 08:57:52;;;;;;;;;;;;;;;21.60;58.08;100395.25;5158285;27;1016;-55
2021/07/16 09:00:18;;;;;;;;;;;;;;;21.26;55.87;100397.47;5159855;27;787;-51
2021/07/16 09:02:58;;;;;;;;;;;;;;;21.49;58.16;100403.81;5160006;27;811;-44
2021/07/16 09:05:33;;;;;;;;;;;;;;;21.84;56.89;100404.03;5159886;27;1017;-45
2021/07/16 09:07:59;;;;;;;;;;;;;;;21.99;56.19;100401.97;5159589;27;1980;-55
2021/07/16 09:10:27;;;;;;;;;;;;;;;22.09;55.34;100401.69;5159639;27;762;-53
2021/07/16 09:12:56;;;;;;;;;;;;;;;21.84;56.67;100394.91;5141099;27;1100;-50
2021/07/16 09:15:22;;;;;;;;;;;;;;;21.59;56.99;100401.94;5159637;27;770;-56
2021/07/16 09:17:47;;;;;;;;;;;;;;;21.53;55.93;100402.06;5159815;27;746;-55
2021/07/16 09:20:21;;;;;;;;;;;;;;;20.93;56.02;100407.94;5159799;27;754;-44
2021/07/16 09:22:47;;;;;;;;;;;;;;;21.57;57.31;100399.47;5159163;27;746;-53
2021/07/16 09:25:12;;;;;;;;;;;;;;;21.84;56.44;100401.25;5141143;27;1459;-44
2021/07/16 09:27:40;;;;;;;;;;;;;;;22.02;55.67;100404.94;5159052;27;1909;-55
2021/07/16 09:30:14;;;;;;;;;;;;;;;22.02;56.25;100404.09;5159532;27;850;-58
2021/07/16 09:32:46;;;;;;;;;;;;;;;21.62;57.25;100401.31;5159344;27;747;-50
2021/07/16 09:35:15;;;;;;;;;;;;;;;21.66;57.06;100397.59;5157910;27;1161;-51
2021/07/16 09:37:48;;;;;;;;;;;;;;;21.31;55.30;100396.53;5159240;27;809;-48
2021/07/16 09:40:18;;;;;;;;;;;;;;;21.67;57.62;100395.63;5159161;27;782;-52
2021/07/16 09:42:44;;;;;;;;;;;;;;;22.00;57.72;100382.25;5158737;27;953;-52
2021/07/16 09:45:10;;;;;;;;;;;;;;;22.15;58.88;100381.03;5159506;27;730;-53
2021/07/16 09:47:35;;;;;;;;;;;;;;;22.13;60.35;100380.53;5140413;27;1957;-53
2021/07/16 09:50:11;;;;;;;;;;;;;;;22.28;61.16;100384.00;5158579;27;847;-51
2021/07/16 09:52:36;;;;;;;;;;;;;;;21.99;57.09;100380.66;5158810;27;1122;-54
2021/07/16 09:55:11;;;;;;;;;;;;;;;21.41;56.51;100379.69;5158787;27;779;-44
2021/07/16 09:57:47;;;;;;;;;;;;;;;21.71;58.02;100380.03;5158606;27;886;-56
2021/07/16 10:00:12;;;;;;;;;;;;;;;21.96;56.83;100383.22;5158777;27;837;-43
2021/07/16 10:02:40;;;;;;;;;;;;;;;22.09;54.84;100376.78;5158265;27;846;-53
2021/07/16 10:05:05;;;;;;;;;;;;;;;22.12;52.83;100367.81;5140170;27;1050;-45
2021/07/16 10:07:31;;;;;;;;;;;;;;;22.02;51.29;100370.88;5139995;27;1980;-57
2021/07/16 10:09:56;;;;;;;;;;;;;;;21.90;50.46;100357.66;5158139;27;751;-56
2021/07/16 10:12:21;;;;;;;;;;;;;;;22.02;49.38;100357.03;5139285;27;957;-44
2021/07/16 10:14:47;;;;;;;;;;;;;;;22.06;50.25;100358.00;5140199;27;794;-57
2021/07/16 10:17:13;;;;;;;;;;;;;;;22.39;52.36;100357.66;5139592;27;874;-44
2021/07/16 10:19:38;;;;;;;;;;;;;;;22.61;54.52;100353.09;5139596;27;873;-50
2021/07/16 10:22:04;;;;;;;;;;;;;;;22.45;57.48;100348.03;5139577;27;886;-46
2021/07/16 10:24:29;;;;;;;;;;;;;;;22.43;59.10;100347.56;5158024;27;747;-46
2021/07/16 10:26:56;;;;;;;;;;;;;;;22.02;55.91;100349.56;5138818;27;977;-44
2021/07/16 10:29:37;;;;;;;;;;;;;;;21.60;55.27;100342.69;5158437;27;1913;-44
2021/07/16 10:32:04;;;;;;;;;;;;;;;21.50;59.79;100344.59;5158764;27;789;-42
2021/07/16 10:34:30;;;;;;;;;;;;;;;21.64;60.65;100344.53;5158092;27;509;-44
2021/07/16 10:36:59;;;;;;;;;;;;;;;21.83;60.23;100344.25;5158440;27;829;-53
2021/07/16 10:39:43;;;;;;;;;;;;;;;22.06;59.07;100352.47;5157786;27;767;-53
2021/07/16 10:42:27;;;;;;;;;;;;;;;22.29;57.18;100342.13;5158176;27;953;-55
2021/07/16 10:44:53;;;;;;;;;;;;;;;21.88;57.89;100338.59;5157700;27;510;-44
2021/07/16 10:47:34;;;;;;;;;;;;;;;21.91;57.58;100341.84;5158101;27;806;-53
2021/07/16 10:50:00;;;;;;;;;;;;;;;21.44;56.14;100345.84;5157956;27;833;-46
2021/07/16 10:52:39;;;;;;;;;;;;;;;21.63;56.62;100333.75;5157546;27;1169;-53
2021/07/16 10:55:05;;;;;;;;;;;;;;;22.05;56.83;100348.09;5158190;27;767;-45
2021/07/16 10:57:38;;;;;;;;;;;;;;;22.09;56.87;100339.94;5157409;27;957;-43
2021/07/16 11:00:04;;;;;;;;;;;;;;;22.25;55.97;100341.13;5157781;27;815;-44
2021/07/16 11:02:55;;;;;;;;;;;;;;;22.08;56.13;100333.59;5158031;27;743;-53
2021/07/16 11:05:34;;;;;;;;;;;;;;;22.06;56.14;100338.63;5152359;27;1622;-55
2021/07/16 11:08:00;;;;;;;;;;;;;;;21.69;55.49;100329.72;5157821;27;1972;-50
2021/07/16 11:10:43;;;;;;;;;;;;;;;21.06;55.80;100324.16;5157784;27;790;-57
2021/07/16 11:13:28;;;;;;;;;;;;;;;21.88;57.37;100330.28;5157362;27;937;-53
2021/07/16 11:15:53;;;;;;;;;;;;;;;22.11;56.18;100324.66;5158056;27;822;-54
2021/07/16 11:18:27;;;;;;;;;;;;;;;22.45;55.22;100328.63;5157239;27;865;-43
2021/07/16 11:20:53;;;;;;;;;;;;;;;22.41;55.45;100332.38;5159807;27;853;-41
2021/07/16 11:23:20;;;;;;;;;;;;;;;22.61;54.87;100320.69;5162012;27;751;-52
2021/07/16 11:25:45;;;;;;;;;;;;;;;22.04;53.61;100324.31;5161387;27;1078;-50
2021/07/16 11:28:11;;;;;;;;;;;;;;;21.25;56.45;100323.97;5120744;28;1969;-53
2021/07/16 11:30:36;;;;;;;;;;;;;;;21.77;59.51;100323.41;5120677;28;747;-44
2021/07/16 11:33:03;;;;;;;;;;;;;;;22.26;60.01;100330.84;5120193;28;795;-45
2021/07/16 11:35:28;;;;;;;;;;;;;;;22.15;61.55;100320.09;5120318;28;759;-58
2021/07/16 11:37:54;;;;;;;;;;;;;;;22.05;62.72;100314.88;5120912;28;819;-46
2021/07/16 11:40:20;;;;;;;;;;;;;;;21.90;62.18;100323.63;5102387;28;850;-60
2021/07/16 11:42:47;;;;;;;;;;;;;;;21.35;58.12;100325.63;5137345;27;950;-44
2021/07/16 11:45:17;;;;;;;;;;;;;;;20.89;57.61;100316.56;5140202;27;771;-44
2021/07/16 11:47:43;;;;;;;;;;;;;;;21.11;58.92;100321.28;5140985;27;1970;-43
2021/07/16 11:50:12;;;;;;;;;;;;;;;21.30;58.78;100320.22;5140610;27;727;-44
2021/07/16 11:52:39;;;;;;;;;;;;;;;21.27;58.80;100318.09;5140508;27;1149;-57
2021/07/16 11:55:06;;;;;;;;;;;;;;;21.31;58.31;100317.16;5141034;27;805;-57
2021/07/16 11:57:32;;;;;;;;;;;;;;;21.51;57.16;100323.28;5145730;27;992;-45
2021/07/16 11:59:57;;;;;;;;;;;;;;;21.56;56.91;100314.88;5140285;27;819;-43
2021/07/16 12:02:23;;;;;;;;;;;;;;;21.24;57.97;100314.03;5140502;27;788;-43
2021/07/16 12:04:49;;;;;;;;;;;;;;;21.29;57.57;100310.31;5153986;27;1071;-55
2021/07/16 12:07:15;;;;;;;;;;;;;;;21.35;55.67;100311.81;5161003;27;807;-59
2021/07/16 12:09:42;;;;;;;;;;;;;;;21.17;56.95;100320.00;5160870;27;1909;-44
2021/07/16 12:12:14;;;;;;;;;;;;;;;21.45;59.36;100313.50;5160461;27;984;-43
2021/07/16 12:14:56;;;;;;;;;;;;;;;22.27;58.74;100321.41;5161268;27;739;-60
2021/07/16 12:17:25;;;;;;;;;;;;;;;21.83;61.98;100319.34;5160960;27;806;-44
2021/07/16 12:19:51;;;;;;;;;;;;;;;21.81;63.03;100320.81;5161167;27;819;-58
2021/07/16 12:22:18;;;;;;;;;;;;;;;21.45;59.86;100311.53;5161086;27;774;-58
2021/07/16 12:24:44;;;;;;;;;;;;;;;21.10;55.15;100308.56;5141322;27;800;-46
2021/07/16 12:27:10;;;;;;;;;;;;;;;21.11;58.13;100312.97;5160220;27;1008;-58
2021/07/16 12:29:35;;;;;;;;;;;;;;;21.06;58.88;100312.28;5141974;27;1982;-59
2021/07/16 12:32:01;;;;;;;;;;;;;;;21.20;57.72;100307.50;5160377;27;759;-45
2021/07/16 12:34:26;;;;;;;;;;;;;;;21.19;55.84;100301.13;5160421;27;719;-59
2021/07/16 12:37:08;;;;;;;;;;;;;;;21.05;55.21;100305.13;5160233;27;732;-44
2021/07/16 12:39:33;;;;;;;;;;;;;;;21.16;54.07;100304.53;5160624;27;822;-44
2021/07/16 12:42:10;;;;;;;;;;;;;;;21.12;53.46;100300.75;5159834;27;1012;-60
2021/07/16 12:44:36;;;;;;;;;;;;;;;21.02;53.33;100301.03;5160670;27;823;-63
2021/07/16 12:47:02;;;;;;;;;;;;;;;21.25;52.21;100298.25;5159926;27;815;-43
2021/07/16 12:49:27;;;;;;;;;;;;;;;21.03;53.49;100299.91;5140969;27;1894;-59
2021/07/16 12:51:52;;;;;;;;;;;;;;;21.15;54.18;100289.09;5160168;27;1133;-43